Terminal Aerodrome Forecast
Issued by NWS Duluth, MN

Home | Current Version | Previous Version | Text Only | Print | Product List | Glossary On
Versions: 1 2 3 4 5 6 7 8 9 10 11 12 13 14 15 16 17 18 19 20
000
FTUS43 KDLH 011500 AAB
TAFDLH
TAF AMD
KDLH 011514Z 0115/0212 27012KT P6SM SCT020
     FM012200 27010KT P6SM BKN040
     FM020600 30008KT P6SM SKC=

USA.gov is the U.S. government's official web portal to all federal, state and local government web resources and services.